Terminal Aerodrome Forecast
Issued by NWS

Current Version | Previous Version | Text Only | Print | Product List | Glossary On
Versions: 1 2 3 4 5 6 7 8 9 10 11 12
000
FTUS44 KEPZ 240500
TAFTCS
TAF
KTCS 240527Z 2406/2506 30006KT P6SM FEW250
     FM241700 15007KT P6SM FEW060 FEW250
     FM242300 19008KT P6SM FEW060 FEW250
     FM250400 30007KT P6SM FEW250=

USA.gov is the U.S. government's official web portal to all federal, state and local government web resources and services.